DLH57F LFBD-EDDF
Flight info
| Callsign | DLH57F |
|---|---|
| Flight time | 1h 28m |
| Altitude | 36000 |
| Route | CNA DCT ADABI DCT BOKNO/N0417F340 DCT DIBES DCT VIQAQ DCT TSU UN858 OQQAL DCT RANUX/N0417F350 DCT VALEK DCT IMCOM IMCOM1A |
| Aircraft | A320/M-SDE3FGHIRWY/LB1 |
Departure
| Time | 2026-04-16 12:42 |
|---|---|
| Airport | Bordeaux–Mérignac Airport (LFBD) |
Arrival
| Time | 2026-04-16 14:11 |
|---|---|
| Airport | Frankfurt Main Airport (EDDF) |
| Time | Latitude | Longitude | Altitude | Speed | Heading |
|---|---|---|---|---|---|
| 2026-04-16 12:17 | 44.82964 | -0.70652 | 166 ft | 0 kts | 136° |
| 2026-04-16 12:33 | 44.82964 | -0.70653 | 166 ft | 2 kts | 136° |
| 2026-04-16 12:33 | 44.82983 | -0.70677 | 165 ft | 4 kts | 139° |
| 2026-04-16 12:34 | 44.83004 | -0.70700 | 165 ft | 4 kts | 147° |
| 2026-04-16 12:34 | 44.83027 | -0.70716 | 165 ft | 4 kts | 177° |
| 2026-04-16 12:34 | 44.83043 | -0.70711 | 165 ft | 0 kts | 225° |
| 2026-04-16 12:35 | 44.83043 | -0.70712 | 164 ft | 0 kts | 225° |
| 2026-04-16 12:36 | 44.83026 | -0.70733 | 165 ft | 6 kts | 220° |
| 2026-04-16 12:37 | 44.82981 | -0.70780 | 165 ft | 10 kts | 215° |
| 2026-04-16 12:37 | 44.82933 | -0.70844 | 165 ft | 9 kts | 245° |
| 2026-04-16 12:37 | 44.82937 | -0.70931 | 165 ft | 9 kts | 276° |
| 2026-04-16 12:37 | 44.82910 | -0.71019 | 165 ft | 13 kts | 225° |
| 2026-04-16 12:38 | 44.82844 | -0.71113 | 165 ft | 17 kts | 225° |
| 2026-04-16 12:38 | 44.82760 | -0.71235 | 164 ft | 17 kts | 225° |
| 2026-04-16 12:38 | 44.82672 | -0.71357 | 166 ft | 22 kts | 223° |
| 2026-04-16 12:38 | 44.82563 | -0.71516 | 166 ft | 23 kts | 225° |
| 2026-04-16 12:39 | 44.82450 | -0.71672 | 166 ft | 23 kts | 224° |
| 2026-04-16 12:39 | 44.82339 | -0.71836 | 166 ft | 24 kts | 225° |
| 2026-04-16 12:39 | 44.82220 | -0.72007 | 167 ft | 25 kts | 225° |
| 2026-04-16 12:39 | 44.82107 | -0.72175 | 167 ft | 17 kts | 236° |
| 2026-04-16 12:40 | 44.82081 | -0.72280 | 167 ft | 6 kts | 261° |
| 2026-04-16 12:40 | 44.82076 | -0.72338 | 167 ft | 5 kts | 272° |
| 2026-04-16 12:40 | 44.82089 | -0.72399 | 168 ft | 6 kts | 292° |
| 2026-04-16 12:40 | 44.82124 | -0.72461 | 168 ft | 11 kts | 315° |
| 2026-04-16 12:41 | 44.82185 | -0.72485 | 168 ft | 8 kts | 1° |
| 2026-04-16 12:41 | 44.82232 | -0.72438 | 168 ft | 11 kts | 46° |
| 2026-04-16 12:41 | 44.82405 | -0.72190 | 166 ft | 72 kts | 45° |
| 2026-04-16 12:41 | 44.82912 | -0.71467 | 164 ft | 133 kts | 45° |
| 2026-04-16 12:42 | 44.83630 | -0.70391 | 511 ft | 155 kts | 49° |
| 2026-04-16 12:42 | 44.84368 | -0.69266 | 1266 ft | 158 kts | 47° |
| 2026-04-16 12:42 | 44.85160 | -0.68081 | 1773 ft | 176 kts | 46° |
| 2026-04-16 12:42 | 44.86071 | -0.66775 | 2187 ft | 198 kts | 46° |
| 2026-04-16 12:43 | 44.87098 | -0.65331 | 2625 ft | 219 kts | 46° |
| 2026-04-16 12:43 | 44.88239 | -0.63727 | 3115 ft | 244 kts | 46° |
| 2026-04-16 12:43 | 44.89476 | -0.61981 | 3846 ft | 257 kts | 47° |
| 2026-04-16 12:43 | 44.90751 | -0.60176 | 4806 ft | 262 kts | 46° |
| 2026-04-16 12:44 | 44.92065 | -0.58360 | 5732 ft | 268 kts | 40° |
| 2026-04-16 12:44 | 44.93648 | -0.56933 | 6656 ft | 274 kts | 24° |
| 2026-04-16 12:44 | 44.95491 | -0.56149 | 7494 ft | 280 kts | 7° |
| 2026-04-16 12:44 | 44.97453 | -0.55975 | 8330 ft | 286 kts | 0° |
| 2026-04-16 12:45 | 44.99460 | -0.55870 | 9229 ft | 291 kts | 1° |
| 2026-04-16 12:45 | 45.01498 | -0.55761 | 10131 ft | 296 kts | 0° |
| 2026-04-16 12:45 | 45.03602 | -0.55646 | 10666 ft | 313 kts | 0° |
| 2026-04-16 12:45 | 45.05853 | -0.55522 | 11081 ft | 332 kts | 0° |
| 2026-04-16 12:46 | 45.08186 | -0.55389 | 11822 ft | 338 kts | 0° |
| 2026-04-16 12:46 | 45.10544 | -0.55248 | 12658 ft | 341 kts | 0° |
| 2026-04-16 12:46 | 45.12925 | -0.55103 | 13507 ft | 344 kts | 360° |
| 2026-04-16 12:46 | 45.15317 | -0.54681 | 14296 ft | 350 kts | 10° |
| 2026-04-16 12:47 | 45.17664 | -0.53672 | 15004 ft | 354 kts | 15° |
| 2026-04-16 12:47 | 45.20019 | -0.52581 | 15715 ft | 358 kts | 15° |
| 2026-04-16 12:47 | 45.22392 | -0.51480 | 16400 ft | 361 kts | 15° |
| 2026-04-16 12:47 | 45.24789 | -0.50369 | 17094 ft | 364 kts | 15° |
| 2026-04-16 12:48 | 45.27207 | -0.49247 | 17796 ft | 368 kts | 15° |
| 2026-04-16 12:48 | 45.29651 | -0.48114 | 18517 ft | 371 kts | 15° |
| 2026-04-16 12:48 | 45.32116 | -0.46970 | 19127 ft | 374 kts | 15° |
| 2026-04-16 12:48 | 45.34603 | -0.45815 | 19723 ft | 377 kts | 15° |
| 2026-04-16 12:49 | 45.37105 | -0.44651 | 20314 ft | 380 kts | 15° |
| 2026-04-16 12:49 | 45.39630 | -0.43475 | 20898 ft | 383 kts | 15° |
| 2026-04-16 12:49 | 45.42173 | -0.42287 | 21467 ft | 386 kts | 15° |
| 2026-04-16 12:49 | 45.44738 | -0.41093 | 22031 ft | 389 kts | 15° |
| 2026-04-16 12:50 | 45.47322 | -0.39891 | 22586 ft | 392 kts | 15° |
| 2026-04-16 12:50 | 45.49927 | -0.38680 | 23129 ft | 395 kts | 15° |
| 2026-04-16 12:50 | 45.52550 | -0.37457 | 23671 ft | 398 kts | 15° |
| 2026-04-16 12:50 | 45.55193 | -0.36222 | 24141 ft | 401 kts | 15° |
| 2026-04-16 12:51 | 45.57856 | -0.34975 | 24594 ft | 404 kts | 15° |
| 2026-04-16 12:51 | 45.60533 | -0.33719 | 25027 ft | 407 kts | 15° |
| 2026-04-16 12:51 | 45.63232 | -0.32450 | 25461 ft | 410 kts | 15° |
| 2026-04-16 12:51 | 45.65905 | -0.30986 | 25875 ft | 415 kts | 23° |
| 2026-04-16 12:52 | 45.68422 | -0.28912 | 26286 ft | 420 kts | 30° |
| 2026-04-16 12:52 | 45.70888 | -0.26641 | 26677 ft | 423 kts | 30° |
| 2026-04-16 12:52 | 45.73370 | -0.24358 | 27094 ft | 426 kts | 30° |
| 2026-04-16 12:52 | 45.75869 | -0.22059 | 27502 ft | 428 kts | 30° |
| 2026-04-16 12:53 | 45.78387 | -0.19742 | 27912 ft | 431 kts | 30° |
| 2026-04-16 12:53 | 45.80917 | -0.17411 | 28291 ft | 434 kts | 30° |
| 2026-04-16 12:53 | 45.83467 | -0.15065 | 28672 ft | 437 kts | 30° |
| 2026-04-16 12:53 | 45.86033 | -0.12699 | 29054 ft | 440 kts | 30° |
| 2026-04-16 12:54 | 45.88615 | -0.10311 | 29434 ft | 443 kts | 30° |
| 2026-04-16 12:54 | 45.91210 | -0.07907 | 29802 ft | 445 kts | 30° |
| 2026-04-16 12:54 | 45.93817 | -0.05490 | 30189 ft | 448 kts | 30° |
| 2026-04-16 12:54 | 45.96442 | -0.03052 | 30495 ft | 451 kts | 30° |
| 2026-04-16 12:55 | 45.99084 | -0.00597 | 30791 ft | 454 kts | 30° |
| 2026-04-16 12:55 | 46.00843 | 0.01038 | 31005 ft | 455 kts | 30° |
| 2026-04-16 12:55 | 46.03503 | 0.03513 | 31313 ft | 457 kts | 30° |
| 2026-04-16 12:55 | 46.06174 | 0.06003 | 31612 ft | 459 kts | 30° |
| 2026-04-16 12:56 | 46.08857 | 0.08507 | 31898 ft | 460 kts | 30° |
| 2026-04-16 12:56 | 46.11545 | 0.11019 | 32308 ft | 459 kts | 29° |
| 2026-04-16 12:56 | 46.14220 | 0.13520 | 32710 ft | 458 kts | 29° |
| 2026-04-16 12:56 | 46.16894 | 0.16018 | 33114 ft | 458 kts | 29° |
| 2026-04-16 12:57 | 46.19569 | 0.18518 | 33472 ft | 458 kts | 29° |
| 2026-04-16 12:57 | 46.22246 | 0.21025 | 33837 ft | 458 kts | 29° |
| 2026-04-16 12:57 | 46.24920 | 0.23536 | 34222 ft | 458 kts | 29° |
| 2026-04-16 12:57 | 46.27591 | 0.26048 | 34560 ft | 458 kts | 29° |
| 2026-04-16 12:58 | 46.30257 | 0.28558 | 34882 ft | 457 kts | 29° |
| 2026-04-16 12:58 | 46.32920 | 0.31069 | 35194 ft | 457 kts | 29° |
| 2026-04-16 12:58 | 46.35580 | 0.33587 | 35495 ft | 457 kts | 29° |
| 2026-04-16 12:58 | 46.38205 | 0.36076 | 35788 ft | 457 kts | 29° |
| 2026-04-16 12:59 | 46.40863 | 0.38597 | 36079 ft | 457 kts | 29° |
| 2026-04-16 12:59 | 46.43520 | 0.41116 | 36367 ft | 456 kts | 29° |
| 2026-04-16 12:59 | 46.46169 | 0.43626 | 36733 ft | 453 kts | 29° |
| 2026-04-16 13:00 | 46.51437 | 0.48630 | 37222 ft | 452 kts | 29° |
| 2026-04-16 13:00 | 46.56860 | 0.53015 | 37285 ft | 441 kts | 16° |
| 2026-04-16 13:01 | 46.62731 | 0.55236 | 37279 ft | 435 kts | 7° |
| 2026-04-16 13:01 | 46.68646 | 0.57170 | 37256 ft | 436 kts | 8° |
| 2026-04-16 13:02 | 46.74552 | 0.59144 | 37268 ft | 436 kts | 8° |
| 2026-04-16 13:02 | 46.80463 | 0.61114 | 37262 ft | 436 kts | 8° |
| 2026-04-16 13:03 | 46.86377 | 0.63077 | 37248 ft | 436 kts | 8° |
| 2026-04-16 13:03 | 46.92288 | 0.65038 | 37258 ft | 436 kts | 8° |
| 2026-04-16 13:04 | 46.98201 | 0.66991 | 37270 ft | 436 kts | 8° |
| 2026-04-16 13:04 | 47.04084 | 0.69194 | 37262 ft | 440 kts | 16° |
| 2026-04-16 13:05 | 47.09531 | 0.73445 | 37262 ft | 447 kts | 27° |
| 2026-04-16 13:05 | 47.14837 | 0.78205 | 37266 ft | 447 kts | 27° |
| 2026-04-16 13:06 | 47.20149 | 0.82948 | 37279 ft | 447 kts | 26° |
| 2026-04-16 13:06 | 47.25466 | 0.87687 | 37276 ft | 447 kts | 27° |
| 2026-04-16 13:07 | 47.30773 | 0.92443 | 37280 ft | 446 kts | 27° |
| 2026-04-16 13:07 | 47.36073 | 0.97218 | 37267 ft | 446 kts | 27° |
| 2026-04-16 13:08 | 47.41369 | 1.01992 | 37288 ft | 446 kts | 27° |
| 2026-04-16 13:08 | 47.46673 | 1.06773 | 37276 ft | 447 kts | 27° |
| 2026-04-16 13:09 | 47.51985 | 1.11543 | 37268 ft | 446 kts | 25° |
| 2026-04-16 13:09 | 47.57421 | 1.15910 | 37263 ft | 444 kts | 22° |
| 2026-04-16 13:10 | 47.62936 | 1.20045 | 37272 ft | 444 kts | 22° |
| 2026-04-16 13:10 | 47.68428 | 1.24243 | 37267 ft | 445 kts | 22° |
| 2026-04-16 13:11 | 47.73901 | 1.28546 | 37271 ft | 445 kts | 23° |
| 2026-04-16 13:11 | 47.79357 | 1.32871 | 37274 ft | 444 kts | 23° |
| 2026-04-16 13:12 | 47.84814 | 1.37197 | 37292 ft | 444 kts | 22° |
| 2026-04-16 13:12 | 47.90271 | 1.41513 | 37284 ft | 444 kts | 22° |
| 2026-04-16 13:13 | 47.95727 | 1.45842 | 37279 ft | 444 kts | 22° |
| 2026-04-16 13:13 | 48.01174 | 1.50178 | 37288 ft | 444 kts | 22° |
| 2026-04-16 13:14 | 48.06625 | 1.54515 | 37268 ft | 444 kts | 22° |
| 2026-04-16 13:14 | 48.12044 | 1.58832 | 37266 ft | 444 kts | 22° |
| 2026-04-16 13:15 | 48.17495 | 1.63205 | 37264 ft | 445 kts | 23° |
| 2026-04-16 13:15 | 48.22947 | 1.67591 | 37286 ft | 445 kts | 22° |
| 2026-04-16 13:16 | 48.28407 | 1.71982 | 37278 ft | 445 kts | 22° |
| 2026-04-16 13:16 | 48.33858 | 1.76376 | 37278 ft | 444 kts | 22° |
| 2026-04-16 13:17 | 48.39296 | 1.80767 | 37276 ft | 444 kts | 22° |
| 2026-04-16 13:17 | 48.44729 | 1.85177 | 37295 ft | 443 kts | 22° |
| 2026-04-16 13:18 | 48.50161 | 1.89596 | 37292 ft | 443 kts | 22° |
| 2026-04-16 13:18 | 48.55584 | 1.94018 | 37287 ft | 443 kts | 22° |
| 2026-04-16 13:19 | 48.61011 | 1.98453 | 37281 ft | 444 kts | 22° |
| 2026-04-16 13:19 | 48.66439 | 2.02907 | 37296 ft | 444 kts | 22° |
| 2026-04-16 13:20 | 48.71710 | 2.07854 | 37289 ft | 453 kts | 36° |
| 2026-04-16 13:20 | 48.75757 | 2.15300 | 37282 ft | 466 kts | 58° |
| 2026-04-16 13:20 | 48.77077 | 2.19805 | 37279 ft | 471 kts | 69° |
| 2026-04-16 13:21 | 48.77975 | 2.24590 | 37281 ft | 472 kts | 72° |
| 2026-04-16 13:21 | 48.79697 | 2.34194 | 37274 ft | 472 kts | 72° |
| 2026-04-16 13:22 | 48.81414 | 2.43806 | 37268 ft | 472 kts | 72° |
| 2026-04-16 13:22 | 48.83126 | 2.53435 | 37270 ft | 473 kts | 72° |
| 2026-04-16 13:23 | 48.84829 | 2.63070 | 37274 ft | 473 kts | 72° |
| 2026-04-16 13:23 | 48.86525 | 2.72706 | 37280 ft | 472 kts | 72° |
| 2026-04-16 13:24 | 48.88218 | 2.82345 | 37272 ft | 472 kts | 72° |
| 2026-04-16 13:24 | 48.89900 | 2.91989 | 37275 ft | 472 kts | 72° |
| 2026-04-16 13:25 | 48.91565 | 3.01648 | 37275 ft | 472 kts | 72° |
| 2026-04-16 13:25 | 48.93221 | 3.11308 | 37284 ft | 472 kts | 72° |
| 2026-04-16 13:26 | 48.94875 | 3.20960 | 37281 ft | 471 kts | 72° |
| 2026-04-16 13:26 | 48.96519 | 3.30608 | 37280 ft | 471 kts | 72° |
| 2026-04-16 13:27 | 48.98157 | 3.40259 | 37272 ft | 471 kts | 72° |
| 2026-04-16 13:27 | 48.99771 | 3.49855 | 37269 ft | 471 kts | 72° |
| 2026-04-16 13:28 | 49.01378 | 3.59512 | 37276 ft | 470 kts | 72° |
| 2026-04-16 13:28 | 49.02984 | 3.69173 | 37287 ft | 470 kts | 72° |
| 2026-04-16 13:29 | 49.04588 | 3.78831 | 37271 ft | 470 kts | 72° |
| 2026-04-16 13:29 | 49.06181 | 3.88497 | 37269 ft | 470 kts | 72° |
| 2026-04-16 13:30 | 49.07760 | 3.98179 | 37269 ft | 470 kts | 72° |
| 2026-04-16 13:30 | 49.09329 | 4.07866 | 37270 ft | 470 kts | 72° |
| 2026-04-16 13:31 | 49.10898 | 4.17557 | 37270 ft | 471 kts | 72° |
| 2026-04-16 13:31 | 49.12460 | 4.27253 | 37269 ft | 471 kts | 72° |
| 2026-04-16 13:32 | 49.14121 | 4.36900 | 37264 ft | 467 kts | 65° |
| 2026-04-16 13:32 | 49.16573 | 4.46038 | 37273 ft | 464 kts | 62° |
| 2026-04-16 13:33 | 49.19041 | 4.55146 | 37276 ft | 464 kts | 62° |
| 2026-04-16 13:33 | 49.21508 | 4.64251 | 37296 ft | 463 kts | 62° |
| 2026-04-16 13:34 | 49.23967 | 4.73373 | 37270 ft | 464 kts | 62° |
| 2026-04-16 13:34 | 49.26409 | 4.82513 | 37253 ft | 464 kts | 63° |
| 2026-04-16 13:35 | 49.28828 | 4.91587 | 37256 ft | 464 kts | 62° |
| 2026-04-16 13:35 | 49.31283 | 5.00808 | 37264 ft | 463 kts | 62° |
| 2026-04-16 13:36 | 49.33703 | 5.09962 | 37262 ft | 463 kts | 62° |
| 2026-04-16 13:36 | 49.36114 | 5.19106 | 37260 ft | 462 kts | 62° |
| 2026-04-16 13:37 | 49.38503 | 5.28204 | 37256 ft | 462 kts | 63° |
| 2026-04-16 13:37 | 49.40900 | 5.37360 | 37284 ft | 462 kts | 62° |
| 2026-04-16 13:38 | 49.43293 | 5.46521 | 37267 ft | 462 kts | 62° |
| 2026-04-16 13:38 | 49.45672 | 5.55691 | 37261 ft | 462 kts | 63° |
| 2026-04-16 13:39 | 49.48047 | 5.64867 | 37068 ft | 464 kts | 62° |
| 2026-04-16 13:39 | 49.49240 | 5.69484 | 36439 ft | 464 kts | 63° |
| 2026-04-16 13:39 | 49.50424 | 5.74093 | 35884 ft | 462 kts | 62° |
| 2026-04-16 13:39 | 49.51594 | 5.78678 | 35371 ft | 459 kts | 63° |
| 2026-04-16 13:40 | 49.52713 | 5.83260 | 34911 ft | 457 kts | 63° |
| 2026-04-16 13:40 | 49.53778 | 5.87840 | 34498 ft | 453 kts | 64° |
| 2026-04-16 13:40 | 49.54811 | 5.92409 | 34019 ft | 449 kts | 64° |
| 2026-04-16 13:40 | 49.55825 | 5.96934 | 33508 ft | 446 kts | 64° |
| 2026-04-16 13:41 | 49.56837 | 6.01428 | 33010 ft | 442 kts | 65° |
| 2026-04-16 13:41 | 49.57849 | 6.05887 | 32524 ft | 439 kts | 65° |
| 2026-04-16 13:41 | 49.58860 | 6.10310 | 32063 ft | 436 kts | 65° |
| 2026-04-16 13:41 | 49.59864 | 6.14701 | 31557 ft | 434 kts | 65° |
| 2026-04-16 13:42 | 49.60864 | 6.19072 | 31077 ft | 431 kts | 66° |
| 2026-04-16 13:42 | 49.61855 | 6.23417 | 30611 ft | 428 kts | 66° |
| 2026-04-16 13:42 | 49.62839 | 6.27734 | 30130 ft | 425 kts | 67° |
| 2026-04-16 13:42 | 49.63814 | 6.32023 | 29609 ft | 422 kts | 67° |
| 2026-04-16 13:43 | 49.64453 | 6.34843 | 29271 ft | 420 kts | 67° |
| 2026-04-16 13:43 | 49.65412 | 6.39080 | 28767 ft | 417 kts | 67° |
| 2026-04-16 13:43 | 49.66362 | 6.43284 | 28284 ft | 413 kts | 67° |
| 2026-04-16 13:43 | 49.67305 | 6.47455 | 27820 ft | 410 kts | 67° |
| 2026-04-16 13:44 | 49.68239 | 6.51594 | 27340 ft | 407 kts | 67° |
| 2026-04-16 13:44 | 49.69164 | 6.55705 | 26869 ft | 404 kts | 68° |
| 2026-04-16 13:44 | 49.70076 | 6.59790 | 26412 ft | 401 kts | 68° |
| 2026-04-16 13:44 | 49.70981 | 6.63850 | 25974 ft | 398 kts | 68° |
| 2026-04-16 13:45 | 49.71878 | 6.67875 | 25532 ft | 395 kts | 68° |
| 2026-04-16 13:45 | 49.72766 | 6.71877 | 25123 ft | 392 kts | 68° |
| 2026-04-16 13:45 | 49.73648 | 6.75851 | 24718 ft | 389 kts | 68° |
| 2026-04-16 13:45 | 49.74522 | 6.79798 | 24294 ft | 387 kts | 68° |
| 2026-04-16 13:46 | 49.75387 | 6.83724 | 23877 ft | 385 kts | 68° |
| 2026-04-16 13:46 | 49.76246 | 6.87627 | 23416 ft | 382 kts | 68° |
| 2026-04-16 13:46 | 49.77098 | 6.91505 | 22980 ft | 380 kts | 68° |
| 2026-04-16 13:46 | 49.77944 | 6.95359 | 22543 ft | 377 kts | 68° |
| 2026-04-16 13:47 | 49.78787 | 6.99187 | 22115 ft | 374 kts | 68° |
| 2026-04-16 13:47 | 49.79622 | 7.02987 | 21708 ft | 372 kts | 68° |
| 2026-04-16 13:47 | 49.80448 | 7.06760 | 21297 ft | 369 kts | 68° |
| 2026-04-16 13:47 | 49.81268 | 7.10511 | 20889 ft | 367 kts | 68° |
| 2026-04-16 13:48 | 49.82084 | 7.14251 | 20476 ft | 366 kts | 68° |
| 2026-04-16 13:48 | 49.82894 | 7.17970 | 20054 ft | 364 kts | 69° |
| 2026-04-16 13:48 | 49.83703 | 7.21681 | 19633 ft | 363 kts | 69° |
| 2026-04-16 13:48 | 49.84506 | 7.25376 | 19223 ft | 362 kts | 69° |
| 2026-04-16 13:49 | 49.85306 | 7.29063 | 18829 ft | 360 kts | 69° |
| 2026-04-16 13:49 | 49.86101 | 7.32730 | 18419 ft | 358 kts | 69° |
| 2026-04-16 13:49 | 49.86891 | 7.36391 | 17962 ft | 357 kts | 69° |
| 2026-04-16 13:49 | 49.87674 | 7.40035 | 17510 ft | 356 kts | 69° |
| 2026-04-16 13:50 | 49.88453 | 7.43671 | 17063 ft | 355 kts | 69° |
| 2026-04-16 13:50 | 49.89228 | 7.47297 | 16627 ft | 354 kts | 70° |
| 2026-04-16 13:50 | 49.90002 | 7.50919 | 16196 ft | 353 kts | 70° |
| 2026-04-16 13:50 | 49.90777 | 7.54532 | 15768 ft | 353 kts | 70° |
| 2026-04-16 13:51 | 49.91548 | 7.58138 | 15345 ft | 352 kts | 70° |
| 2026-04-16 13:51 | 49.92316 | 7.61738 | 14931 ft | 351 kts | 70° |
| 2026-04-16 13:51 | 49.93080 | 7.65327 | 14523 ft | 350 kts | 70° |
| 2026-04-16 13:51 | 49.93833 | 7.68864 | 14126 ft | 349 kts | 70° |
| 2026-04-16 13:52 | 49.94601 | 7.72483 | 13685 ft | 348 kts | 70° |
| 2026-04-16 13:52 | 49.95352 | 7.76040 | 13230 ft | 346 kts | 70° |
| 2026-04-16 13:52 | 49.96089 | 7.79542 | 12789 ft | 345 kts | 71° |
| 2026-04-16 13:52 | 49.96933 | 7.83543 | 12300 ft | 342 kts | 71° |
| 2026-04-16 13:53 | 49.97667 | 7.87045 | 11863 ft | 340 kts | 71° |
| 2026-04-16 13:53 | 49.98394 | 7.90522 | 11435 ft | 337 kts | 71° |
| 2026-04-16 13:53 | 49.99101 | 7.93905 | 11216 ft | 328 kts | 71° |
| 2026-04-16 13:53 | 49.99824 | 7.97227 | 11218 ft | 313 kts | 70° |
| 2026-04-16 13:54 | 50.00576 | 8.00368 | 11220 ft | 308 kts | 69° |
| 2026-04-16 13:54 | 50.01340 | 8.03446 | 10934 ft | 304 kts | 68° |
| 2026-04-16 13:54 | 50.02108 | 8.06501 | 10600 ft | 302 kts | 68° |
| 2026-04-16 13:54 | 50.02868 | 8.09537 | 10266 ft | 300 kts | 69° |
| 2026-04-16 13:55 | 50.03620 | 8.12561 | 9967 ft | 299 kts | 69° |
| 2026-04-16 13:55 | 50.04359 | 8.15565 | 9662 ft | 296 kts | 69° |
| 2026-04-16 13:55 | 50.05088 | 8.18548 | 9264 ft | 294 kts | 69° |
| 2026-04-16 13:55 | 50.05812 | 8.21524 | 8873 ft | 294 kts | 69° |
| 2026-04-16 13:56 | 50.06532 | 8.24491 | 8572 ft | 292 kts | 69° |
| 2026-04-16 13:56 | 50.07237 | 8.27400 | 8270 ft | 290 kts | 69° |
| 2026-04-16 13:56 | 50.07945 | 8.30330 | 7876 ft | 288 kts | 69° |
| 2026-04-16 13:56 | 50.08648 | 8.33246 | 7482 ft | 287 kts | 69° |
| 2026-04-16 13:57 | 50.09349 | 8.36143 | 7225 ft | 284 kts | 69° |
| 2026-04-16 13:57 | 50.10048 | 8.39031 | 7224 ft | 286 kts | 69° |
| 2026-04-16 13:57 | 50.10744 | 8.41929 | 7236 ft | 286 kts | 69° |
| 2026-04-16 13:58 | 50.12135 | 8.47741 | 7198 ft | 286 kts | 69° |
| 2026-04-16 13:58 | 50.12825 | 8.50632 | 6833 ft | 284 kts | 69° |
| 2026-04-16 13:58 | 50.13513 | 8.53512 | 6425 ft | 283 kts | 69° |
| 2026-04-16 13:58 | 50.14197 | 8.56374 | 6114 ft | 280 kts | 69° |
| 2026-04-16 13:59 | 50.14871 | 8.59209 | 5689 ft | 279 kts | 69° |
| 2026-04-16 13:59 | 50.15541 | 8.62033 | 5298 ft | 276 kts | 69° |
| 2026-04-16 13:59 | 50.16205 | 8.64829 | 4904 ft | 274 kts | 69° |
| 2026-04-16 13:59 | 50.16867 | 8.67606 | 4486 ft | 272 kts | 69° |
| 2026-04-16 14:00 | 50.17524 | 8.70362 | 4090 ft | 270 kts | 69° |
| 2026-04-16 14:00 | 50.18170 | 8.73089 | 4007 ft | 269 kts | 70° |
| 2026-04-16 14:00 | 50.18817 | 8.75834 | 4009 ft | 268 kts | 70° |
| 2026-04-16 14:00 | 50.19466 | 8.78577 | 4010 ft | 270 kts | 69° |
| 2026-04-16 14:01 | 50.20116 | 8.81331 | 4012 ft | 271 kts | 70° |
| 2026-04-16 14:01 | 50.20764 | 8.84086 | 4015 ft | 270 kts | 70° |
| 2026-04-16 14:01 | 50.21411 | 8.86843 | 4011 ft | 270 kts | 70° |
| 2026-04-16 14:01 | 50.22053 | 8.89575 | 4004 ft | 262 kts | 69° |
| 2026-04-16 14:02 | 50.22657 | 8.92154 | 4004 ft | 245 kts | 69° |
| 2026-04-16 14:02 | 50.23144 | 8.94666 | 4007 ft | 240 kts | 85° |
| 2026-04-16 14:02 | 50.22880 | 8.97185 | 4005 ft | 237 kts | 118° |
| 2026-04-16 14:02 | 50.21817 | 8.99084 | 4010 ft | 234 kts | 147° |
| 2026-04-16 14:03 | 50.20417 | 9.00378 | 4009 ft | 234 kts | 153° |
| 2026-04-16 14:03 | 50.18905 | 9.01216 | 4006 ft | 230 kts | 179° |
| 2026-04-16 14:03 | 50.17340 | 9.00861 | 4010 ft | 229 kts | 200° |
| 2026-04-16 14:03 | 50.15851 | 8.99990 | 4003 ft | 229 kts | 203° |
| 2026-04-16 14:04 | 50.14403 | 8.98952 | 3999 ft | 228 kts | 215° |
| 2026-04-16 14:04 | 50.13269 | 8.97266 | 4002 ft | 226 kts | 236° |
| 2026-04-16 14:04 | 50.12593 | 8.95064 | 4012 ft | 227 kts | 250° |
| 2026-04-16 14:04 | 50.12058 | 8.92760 | 4006 ft | 226 kts | 250° |
| 2026-04-16 14:05 | 50.11522 | 8.90458 | 4004 ft | 222 kts | 250° |
| 2026-04-16 14:05 | 50.11007 | 8.88263 | 4006 ft | 209 kts | 250° |
| 2026-04-16 14:05 | 50.10523 | 8.86203 | 3960 ft | 198 kts | 250° |
| 2026-04-16 14:05 | 50.10052 | 8.84203 | 3776 ft | 195 kts | 250° |
| 2026-04-16 14:06 | 50.09602 | 8.82289 | 3541 ft | 181 kts | 250° |
| 2026-04-16 14:06 | 50.09191 | 8.80547 | 3325 ft | 162 kts | 250° |
| 2026-04-16 14:06 | 50.08822 | 8.78984 | 3086 ft | 146 kts | 250° |
| 2026-04-16 14:06 | 50.08483 | 8.77549 | 2903 ft | 138 kts | 250° |
| 2026-04-16 14:07 | 50.08164 | 8.76163 | 2706 ft | 134 kts | 251° |
| 2026-04-16 14:07 | 50.07864 | 8.74830 | 2504 ft | 131 kts | 250° |
| 2026-04-16 14:07 | 50.07541 | 8.73496 | 2252 ft | 131 kts | 248° |
| 2026-04-16 14:07 | 50.07195 | 8.72161 | 2027 ft | 132 kts | 249° |
| 2026-04-16 14:08 | 50.06879 | 8.70843 | 1830 ft | 132 kts | 251° |
| 2026-04-16 14:08 | 50.06578 | 8.69495 | 1694 ft | 132 kts | 251° |
| 2026-04-16 14:08 | 50.06272 | 8.68138 | 1532 ft | 130 kts | 250° |
| 2026-04-16 14:08 | 50.06063 | 8.67262 | 1446 ft | 130 kts | 250° |
| 2026-04-16 14:09 | 50.05073 | 8.63097 | 985 ft | 130 kts | 250° |
| 2026-04-16 14:09 | 50.04752 | 8.61768 | 826 ft | 132 kts | 247° |
| 2026-04-16 14:10 | 50.04426 | 8.60431 | 646 ft | 133 kts | 249° |
| 2026-04-16 14:10 | 50.04116 | 8.59093 | 470 ft | 131 kts | 246° |
| 2026-04-16 14:10 | 50.03799 | 8.57782 | 364 ft | 121 kts | 247° |
| 2026-04-16 14:10 | 50.03558 | 8.56787 | 352 ft | 74 kts | 249° |
| 2026-04-16 14:11 | 50.03447 | 8.56288 | 360 ft | 24 kts | 261° |
| 2026-04-16 14:11 | 50.03438 | 8.56065 | 353 ft | 23 kts | 274° |
| 2026-04-16 14:11 | 50.03462 | 8.55826 | 345 ft | 23 kts | 279° |
| 2026-04-16 14:11 | 50.03489 | 8.55581 | 345 ft | 21 kts | 279° |
| 2026-04-16 14:12 | 50.03476 | 8.55406 | 353 ft | 17 kts | 250° |
| 2026-04-16 14:12 | 50.03426 | 8.55196 | 347 ft | 23 kts | 250° |
| 2026-04-16 14:12 | 50.03366 | 8.54947 | 344 ft | 26 kts | 249° |
| 2026-04-16 14:12 | 50.03301 | 8.54675 | 335 ft | 26 kts | 249° |
| 2026-04-16 14:13 | 50.03284 | 8.54512 | 337 ft | 11 kts | 303° |
| 2026-04-16 14:13 | 50.03349 | 8.54459 | 334 ft | 14 kts | 339° |
| 2026-04-16 14:13 | 50.03440 | 8.54407 | 349 ft | 12 kts | 340° |
| 2026-04-16 14:13 | 50.03519 | 8.54361 | 344 ft | 14 kts | 340° |
| 2026-04-16 14:14 | 50.03611 | 8.54310 | 345 ft | 11 kts | 347° |
| 2026-04-16 14:14 | 50.03667 | 8.54353 | 351 ft | 9 kts | 58° |
| 2026-04-16 14:14 | 50.03695 | 8.54472 | 346 ft | 13 kts | 70° |
| 2026-04-16 14:14 | 50.03723 | 8.54590 | 354 ft | 10 kts | 70° |
| 2026-04-16 14:15 | 50.03750 | 8.54698 | 349 ft | 14 kts | 69° |
| 2026-04-16 14:15 | 50.03791 | 8.54873 | 349 ft | 19 kts | 69° |
| 2026-04-16 14:15 | 50.03843 | 8.55092 | 356 ft | 23 kts | 70° |
| 2026-04-16 14:15 | 50.03902 | 8.55339 | 353 ft | 26 kts | 70° |
| 2026-04-16 14:16 | 50.03967 | 8.55610 | 353 ft | 28 kts | 70° |
| 2026-04-16 14:16 | 50.04035 | 8.55895 | 352 ft | 28 kts | 69° |
| 2026-04-16 14:16 | 50.04104 | 8.56182 | 356 ft | 29 kts | 69° |
| 2026-04-16 14:16 | 50.04171 | 8.56465 | 357 ft | 25 kts | 70° |
| 2026-04-16 14:17 | 50.04224 | 8.56686 | 357 ft | 16 kts | 69° |
| 2026-04-16 14:17 | 50.04261 | 8.56793 | 362 ft | 9 kts | 40° |
| 2026-04-16 14:17 | 50.04313 | 8.56818 | 360 ft | 7 kts | 11° |
| 2026-04-16 14:17 | 50.04361 | 8.56832 | 360 ft | 7 kts | 11° |
| 2026-04-16 14:18 | 50.04363 | 8.56833 | 360 ft | 0 kts | 11° |
| 2026-04-16 14:18 | 50.04368 | 8.56834 | 360 ft | 4 kts | 11° |
| 2026-04-16 14:19 | 50.04432 | 8.56849 | 363 ft | 11 kts | 8° |
| 2026-04-16 14:19 | 50.04504 | 8.56872 | 359 ft | 10 kts | 14° |
| 2026-04-16 14:19 | 50.04573 | 8.56898 | 360 ft | 11 kts | 14° |
| 2026-04-16 14:19 | 50.04641 | 8.56927 | 357 ft | 6 kts | 21° |
| 2026-04-16 14:20 | 50.04681 | 8.56933 | 362 ft | 5 kts | 341° |
| 2026-04-16 14:20 | 50.04689 | 8.56898 | 357 ft | 3 kts | 287° |
| 2026-04-16 14:20 | 50.04696 | 8.56871 | 358 ft | 3 kts | 296° |
| 2026-04-16 14:20 | 50.04703 | 8.56848 | 362 ft | 1 kts | 296° |
| 2026-04-16 14:21 | 50.04704 | 8.56846 | 362 ft | 0 kts | 295° |